Time;durP1;ratioP1;P1;durP2;ratioP2;P2;SDS_P1;SDS_P2;PMS_P1;PMS_P2;Temp;Humidity;BMP_temperature;BMP_pressure;BME280_temperature;BME280_humidity;BME280_pressure;Samples;Min_cycle;Max_cycle;Signal;HPM_P1;HPM_P2
2021/05/31 00:00:18;;;;;;;5.75;3.53;;;14.70;67.50;;;;;;2065369;28;20037;-89
2021/05/31 00:01:18;;;;;;;6.40;3.72;;;14.70;67.60;;;;;;2071543;28;20109;-89
2021/05/31 00:02:19;;;;;;;6.22;3.55;;;14.70;67.70;;;;;;2086771;28;20076;-89
2021/05/31 00:03:20;;;;;;;6.38;3.50;;;14.70;67.70;;;;;;2081357;28;20438;-89
2021/05/31 00:04:22;;;;;;;6.88;3.78;;;14.60;67.70;;;;;;2079231;28;20077;-90
2021/05/31 00:05:25;;;;;;;5.53;3.20;;;14.60;67.80;;;;;;2076567;28;20124;-88
2021/05/31 00:06:25;;;;;;;5.75;3.50;;;14.70;67.90;;;;;;2071318;28;20033;-87
2021/05/31 00:07:26;;;;;;;5.65;3.55;;;14.70;68.00;;;;;;2072965;28;20149;-87
2021/05/31 00:08:27;;;;;;;5.50;3.30;;;14.60;67.90;;;;;;2073296;28;20083;-88
2021/05/31 00:09:28;;;;;;;8.00;3.28;;;14.60;68.00;;;;;;2065617;28;20045;-88
2021/05/31 00:10:29;;;;;;;5.50;3.17;;;14.60;68.10;;;;;;2067963;28;20022;-87
2021/05/31 00:11:30;;;;;;;4.47;3.05;;;14.60;68.20;;;;;;2071621;28;20064;-87
2021/05/31 00:12:30;;;;;;;5.30;3.20;;;14.60;68.20;;;;;;2062738;28;20412;-87
2021/05/31 00:13:31;;;;;;;4.30;2.90;;;14.60;68.30;;;;;;2057146;28;20050;-88
2021/05/31 00:14:32;;;;;;;4.88;3.33;;;14.60;68.40;;;;;;2056694;28;20065;-88
2021/05/31 00:15:34;;;;;;;6.03;3.25;;;14.60;68.50;;;;;;2064964;28;20026;-88
2021/05/31 00:16:36;;;;;;;6.13;3.40;;;14.60;68.50;;;;;;2060588;28;20057;-88
2021/05/31 00:17:37;;;;;;;6.13;3.60;;;14.60;68.50;;;;;;2057615;28;21616;-87
2021/05/31 00:18:38;;;;;;;6.47;3.70;;;14.60;68.60;;;;;;2057876;28;20335;-88
2021/05/31 00:19:39;;;;;;;5.47;3.50;;;14.50;68.60;;;;;;2057189;28;20077;-88
2021/05/31 00:20:40;;;;;;;5.95;3.38;;;14.50;68.80;;;;;;2057365;28;20031;-88
2021/05/31 00:21:41;;;;;;;6.07;3.38;;;14.50;68.90;;;;;;2072022;28;20439;-87
2021/05/31 00:22:42;;;;;;;5.97;3.58;;;14.50;68.90;;;;;;2073237;28;20041;-87
2021/05/31 00:23:42;;;;;;;6.05;3.35;;;14.50;69.60;;;;;;2072569;28;20034;-87
2021/05/31 00:24:43;;;;;;;4.65;3.03;;;14.50;69.10;;;;;;2071987;28;20113;-88
2021/05/31 00:25:44;;;;;;;3.30;2.90;;;14.50;69.10;;;;;;2056323;28;20049;-88
2021/05/31 00:26:45;;;;;;;6.60;3.70;;;14.50;69.20;;;;;;2064761;28;20121;-88
2021/05/31 00:27:46;;;;;;;5.07;3.47;;;14.50;69.30;;;;;;2080795;28;20480;-88
2021/05/31 00:28:46;;;;;;;4.28;3.30;;;14.50;69.30;;;;;;2081160;28;20037;-86
2021/05/31 00:29:47;;;;;;;6.70;3.35;;;14.50;69.40;;;;;;2057931;28;21703;-88
2021/05/31 00:30:48;;;;;;;5.72;3.90;;;14.50;69.40;;;;;;2064870;28;20043;-88
2021/05/31 00:31:53;;;;;;;5.50;3.35;;;14.40;69.40;;;;;;2056712;28;20030;-88
2021/05/31 00:32:54;;;;;;;5.20;3.50;;;14.50;69.60;;;;;;2064757;28;20046;-87
2021/05/31 00:33:55;;;;;;;5.53;3.85;;;14.40;70.20;;;;;;2072404;28;20112;-88
2021/05/31 00:34:55;;;;;;;5.30;3.50;;;14.50;69.70;;;;;;2072780;28;20193;-87
2021/05/31 00:35:56;;;;;;;5.63;3.40;;;14.40;69.80;;;;;;2062609;28;20405;-87
2021/05/31 00:36:57;;;;;;;7.65;4.22;;;14.40;69.80;;;;;;2064825;28;20129;-86
2021/05/31 00:37:57;;;;;;;5.22;3.42;;;14.40;69.90;;;;;;2064830;28;20037;-87
2021/05/31 00:38:58;;;;;;;5.63;3.97;;;14.40;69.90;;;;;;2065076;28;20038;-87
2021/05/31 00:39:59;;;;;;;5.40;3.60;;;14.40;70.00;;;;;;2065076;28;20033;-87
2021/05/31 00:41:01;;;;;;;6.57;3.78;;;14.40;70.00;;;;;;2059975;28;20036;-87
2021/05/31 00:42:02;;;;;;;5.00;3.55;;;14.40;70.10;;;;;;2070546;28;20123;-87
2021/05/31 00:43:02;;;;;;;7.18;4.05;;;14.40;70.20;;;;;;2064560;28;20476;-87
2021/05/31 00:44:03;;;;;;;6.10;3.60;;;14.40;70.30;;;;;;2063002;28;20113;-87
2021/05/31 00:45:06;;;;;;;6.20;4.05;;;14.40;70.30;;;;;;2064946;28;20110;-87
2021/05/31 00:46:09;;;;;;;6.35;4.10;;;14.40;70.40;;;;;;2049115;28;20031;-87
2021/05/31 00:47:10;;;;;;;6.05;3.92;;;14.30;70.40;;;;;;2055543;28;20074;-87
2021/05/31 00:48:10;;;;;;;5.70;3.78;;;14.40;70.50;;;;;;2068282;28;20457;-87
2021/05/31 00:49:11;;;;;;;5.85;3.92;;;14.30;70.50;;;;;;2071293;28;20014;-87
2021/05/31 00:50:13;;;;;;;6.72;3.90;;;14.30;70.60;;;;;;2068449;28;20018;-87
2021/05/31 00:51:14;;;;;;;7.30;4.13;;;14.30;70.70;;;;;;2081144;28;20030;-87
2021/05/31 00:52:15;;;;;;;7.05;3.85;;;14.30;70.80;;;;;;2087550;28;20022;-88
2021/05/31 00:53:15;;;;;;;6.07;3.75;;;14.30;71.50;;;;;;2082006;28;20013;-87
2021/05/31 00:54:18;;;;;;;6.50;4.30;;;14.30;70.90;;;;;;2070152;28;20041;-88
2021/05/31 00:55:19;;;;;;;5.82;4.05;;;14.20;70.90;;;;;;2074389;28;20055;-87
2021/05/31 00:56:19;;;;;;;7.20;3.90;;;14.20;71.00;;;;;;2067670;28;20030;-87
2021/05/31 00:57:20;;;;;;;5.68;3.88;;;14.20;71.10;;;;;;2057300;28;20034;-87
2021/05/31 00:58:26;;;;;;;6.60;4.25;;;14.20;71.80;;;;;;2059531;28;20031;-87
2021/05/31 00:59:27;;;;;;;6.00;4.00;;;14.20;71.20;;;;;;2068834;28;20010;-87
2021/05/31 01:00:28;;;;;;;6.75;3.70;;;14.20;71.30;;;;;;2079108;28;20076;-86
2021/05/31 01:01:28;;;;;;;6.20;4.10;;;14.20;71.30;;;;;;2066736;28;20102;-86
2021/05/31 01:02:29;;;;;;;6.28;4.10;;;14.20;71.40;;;;;;2067410;28;20110;-88
2021/05/31 01:03:30;;;;;;;7.20;4.18;;;14.20;71.50;;;;;;2068640;28;20496;-88
2021/05/31 01:04:30;;;;;;;6.88;4.68;;;14.20;71.50;;;;;;2072037;28;20030;-87
2021/05/31 01:05:31;;;;;;;8.43;4.45;;;14.20;71.60;;;;;;2069072;28;20603;-87
2021/05/31 01:06:48;;;;;;;7.07;4.38;;;14.10;71.60;;;;;;2064298;28;20033;-88
2021/05/31 01:07:55;;;;;;;7.47;4.65;;;14.10;71.70;;;;;;2073842;28;20048;-87
2021/05/31 01:09:05;;;;;;;7.10;4.22;;;14.10;71.80;;;;;;2080970;28;20049;-87
2021/05/31 01:10:18;;;;;;;6.38;4.25;;;14.10;71.90;;;;;;2086152;28;20065;-87
2021/05/31 01:11:26;;;;;;;7.13;4.55;;;14.10;71.90;;;;;;2077634;28;20025;-87
2021/05/31 01:12:32;;;;;;;6.68;4.07;;;14.10;71.90;;;;;;2076994;28;20021;-87
2021/05/31 01:13:56;;;;;;;6.05;3.92;;;14.10;72.00;;;;;;2078505;28;20037;-87
2021/05/31 01:15:00;;;;;;;6.00;4.40;;;14.10;72.00;;;;;;2081170;28;20025;-87
2021/05/31 01:16:29;;;;;;;6.18;4.07;;;14.10;72.10;;;;;;2080512;28;20028;-88
2021/05/31 01:18:03;;;;;;;6.85;4.13;;;14.00;72.00;;;;;;2082189;28;20036;-88
2021/05/31 01:19:14;;;;;;;5.00;3.55;;;14.10;72.10;;;;;;2088215;28;20014;-88
2021/05/31 01:20:38;;;;;;;5.85;3.83;;;14.00;72.10;;;;;;2085638;28;20053;-87
2021/05/31 01:22:03;;;;;;;5.63;3.78;;;14.00;72.10;;;;;;2084196;28;20029;-87
2021/05/31 01:23:09;;;;;;;6.60;3.97;;;14.00;72.10;;;;;;2084185;28;20029;-87
2021/05/31 01:24:42;;;;;;;6.65;3.97;;;14.00;72.10;;;;;;2081508;28;20139;-87
2021/05/31 01:26:20;;;;;;;7.45;3.85;;;14.00;72.20;;;;;;2077363;28;20036;-88
2021/05/31 01:27:20;;;;;;;5.18;3.47;;;14.00;72.10;;;;;;2077471;28;20033;-88
2021/05/31 01:28:56;;;;;;;6.68;4.00;;;14.00;72.20;;;;;;2082520;28;20063;-88
2021/05/31 01:30:01;;;;;;;5.55;3.85;;;14.00;72.40;;;;;;2062302;28;20113;-88
2021/05/31 01:31:02;;;;;;;7.32;4.40;;;13.90;72.30;;;;;;2078240;28;20029;-88
2021/05/31 01:32:03;;;;;;;6.30;4.22;;;13.90;72.40;;;;;;2078225;28;20021;-88
2021/05/31 01:33:07;;;;;;;7.15;4.50;;;13.90;72.50;;;;;;2078489;28;20379;-88
2021/05/31 01:34:11;;;;;;;7.07;4.53;;;13.90;72.60;;;;;;2084460;28;20055;-88
2021/05/31 01:35:15;;;;;;;6.43;4.45;;;13.90;72.70;;;;;;2086292;28;20021;-88
2021/05/31 01:36:17;;;;;;;8.07;4.93;;;13.90;72.80;;;;;;2079993;28;20092;-88
2021/05/31 01:37:21;;;;;;;6.65;4.55;;;13.90;72.90;;;;;;2079879;28;20029;-88
2021/05/31 01:38:22;;;;;;;9.07;4.70;;;13.90;73.00;;;;;;2071961;28;20041;-88
2021/05/31 01:39:28;;;;;;;8.05;4.25;;;13.90;73.10;;;;;;2069514;28;20034;-88
2021/05/31 01:40:30;;;;;;;7.55;4.53;;;13.90;73.10;;;;;;2074014;28;20026;-88
2021/05/31 01:41:31;;;;;;;8.20;4.65;;;13.90;73.20;;;;;;2072664;28;20048;-88
2021/05/31 01:42:33;;;;;;;7.78;4.82;;;13.90;73.30;;;;;;2064264;28;20031;-88
2021/05/31 01:43:34;;;;;;;7.03;4.80;;;13.90;73.30;;;;;;2064826;28;20030;-88
2021/05/31 01:44:34;;;;;;;7.15;4.63;;;13.90;73.40;;;;;;2072863;28;20030;-87
2021/05/31 01:45:35;;;;;;;6.38;4.20;;;13.90;73.50;;;;;;2045913;29;20024;-88
2021/05/31 01:46:36;;;;;;;7.75;4.82;;;13.90;73.50;;;;;;2040314;28;20098;-88
2021/05/31 01:47:37;;;;;;;6.85;4.45;;;13.80;73.50;;;;;;2059634;28;20213;-88
2021/05/31 01:48:39;;;;;;;6.93;4.70;;;13.80;73.60;;;;;;2064558;28;20322;-88
2021/05/31 01:49:40;;;;;;;8.10;4.57;;;13.80;73.70;;;;;;2064112;28;20018;-88
2021/05/31 01:50:42;;;;;;;7.18;5.07;;;13.80;73.80;;;;;;2059157;28;20382;-88
2021/05/31 01:51:45;;;;;;;7.40;4.90;;;13.80;73.80;;;;;;2072113;28;20114;-87
2021/05/31 01:52:47;;;;;;;7.20;4.70;;;13.80;73.90;;;;;;2071634;28;20026;-88
2021/05/31 01:53:50;;;;;;;7.10;5.00;;;13.80;73.90;;;;;;2056670;28;20457;-88
2021/05/31 01:54:56;;;;;;;7.30;4.60;;;13.80;74.00;;;;;;2072610;28;20025;-87
2021/05/31 01:55:57;;;;;;;6.88;4.80;;;13.80;74.10;;;;;;2077664;28;20558;-88
2021/05/31 01:56:58;;;;;;;7.20;5.05;;;13.80;74.10;;;;;;2076967;28;20053;-88
2021/05/31 01:58:00;;;;;;;7.28;4.65;;;13.80;74.10;;;;;;2077572;28;20030;-87
2021/05/31 01:59:01;;;;;;;7.50;4.82;;;13.80;74.20;;;;;;2064069;28;20459;-88
2021/05/31 02:00:05;;;;;;;6.90;4.68;;;13.80;74.20;;;;;;2073672;28;20025;-88
2021/05/31 02:01:09;;;;;;;6.88;4.63;;;13.80;74.30;;;;;;2073340;28;20120;-87
2021/05/31 02:02:09;;;;;;;6.97;4.70;;;13.70;74.30;;;;;;2068195;28;20029;-87
2021/05/31 02:03:10;;;;;;;6.60;4.93;;;13.70;74.30;;;;;;2062115;28;20026;-87
2021/05/31 02:04:11;;;;;;;7.10;4.85;;;13.70;74.30;;;;;;2062052;28;20041;-87
2021/05/31 02:05:14;;;;;;;6.20;4.82;;;13.80;74.40;;;;;;2061767;28;20033;-87
2021/05/31 02:06:15;;;;;;;6.80;5.22;;;13.70;74.40;;;;;;2062159;28;20058;-87
2021/05/31 02:07:15;;;;;;;6.70;4.70;;;13.70;74.40;;;;;;2072622;28;20033;-87
2021/05/31 02:08:16;;;;;;;6.65;4.70;;;13.70;74.40;;;;;;2063712;28;20069;-87
2021/05/31 02:09:17;;;;;;;6.78;4.68;;;13.70;74.60;;;;;;2056225;28;20470;-86
2021/05/31 02:10:18;;;;;;;7.75;4.90;;;13.70;74.70;;;;;;2061397;28;20573;-87
2021/05/31 02:11:36;;;;;;;6.65;4.97;;;13.70;75.30;;;;;;2068487;28;20650;-87
2021/05/31 02:12:51;;;;;;;6.68;4.78;;;13.70;74.70;;;;;;2065612;28;20425;-88
2021/05/31 02:13:58;;;;;;;7.47;4.80;;;13.70;74.80;;;;;;2068966;28;20034;-88
2021/05/31 02:15:03;;;;;;;8.80;4.90;;;13.70;74.80;;;;;;2071308;28;20073;-88
2021/05/31 02:16:12;;;;;;;6.47;4.43;;;13.60;74.80;;;;;;2071122;28;20030;-88
2021/05/31 02:17:21;;;;;;;7.90;4.85;;;13.60;74.80;;;;;;2071358;28;20040;-89
2021/05/31 02:18:44;;;;;;;7.00;4.80;;;13.60;74.80;;;;;;2079165;28;20399;-88
2021/05/31 02:19:47;;;;;;;8.82;4.93;;;13.70;74.90;;;;;;2075707;28;20037;-88
2021/05/31 02:20:52;;;;;;;7.57;4.85;;;13.60;74.80;;;;;;2072784;28;20026;-87
2021/05/31 02:21:54;;;;;;;6.82;5.10;;;13.60;74.90;;;;;;2078714;28;20487;-88
2021/05/31 02:22:57;;;;;;;7.47;4.55;;;13.60;74.90;;;;;;2064495;28;20144;-89
2021/05/31 02:23:59;;;;;;;7.15;4.80;;;13.60;75.00;;;;;;2071919;28;20109;-89
2021/05/31 02:25:01;;;;;;;8.88;5.75;;;13.60;75.00;;;;;;2078847;28;20059;-89
2021/05/31 02:26:02;;;;;;;6.88;5.15;;;13.60;75.00;;;;;;2073971;28;20060;-89
2021/05/31 02:27:05;;;;;;;7.97;5.00;;;13.60;75.10;;;;;;2072582;28;20073;-89
2021/05/31 02:28:06;;;;;;;8.38;5.70;;;13.60;75.10;;;;;;2067701;28;20062;-89
2021/05/31 02:29:06;;;;;;;7.68;5.80;;;13.60;75.30;;;;;;2075518;28;20034;-89
2021/05/31 02:30:08;;;;;;;7.47;5.00;;;13.50;75.30;;;;;;2071610;28;20030;-88
2021/05/31 02:31:09;;;;;;;8.10;5.60;;;13.50;75.30;;;;;;2062989;28;20030;-88
2021/05/31 02:32:09;;;;;;;8.70;5.30;;;13.50;75.40;;;;;;2072990;28;20033;-86
2021/05/31 02:33:10;;;;;;;7.25;5.28;;;13.50;75.40;;;;;;2064947;28;20026;-87
2021/05/31 02:34:11;;;;;;;8.77;5.95;;;13.50;75.50;;;;;;2068701;28;20433;-87
2021/05/31 02:35:12;;;;;;;8.30;5.93;;;13.50;75.50;;;;;;2071970;28;20073;-87
2021/05/31 02:36:12;;;;;;;7.68;5.53;;;13.50;75.50;;;;;;2060915;28;20038;-87
2021/05/31 02:37:14;;;;;;;6.82;5.28;;;13.50;75.60;;;;;;2062604;28;20514;-87
2021/05/31 02:38:16;;;;;;;7.93;5.35;;;13.50;75.60;;;;;;2060461;28;20030;-86
2021/05/31 02:39:17;;;;;;;8.65;5.30;;;13.50;75.70;;;;;;2064151;28;20564;-87
2021/05/31 02:40:19;;;;;;;7.35;5.25;;;13.40;75.70;;;;;;2063880;28;20048;-87
2021/05/31 02:41:19;;;;;;;7.03;5.60;;;13.50;75.70;;;;;;2064158;28;20037;-87
2021/05/31 02:42:20;;;;;;;7.72;5.22;;;13.50;75.70;;;;;;2076557;28;20100;-86
2021/05/31 02:43:21;;;;;;;8.48;5.30;;;13.40;75.70;;;;;;2079200;28;20025;-87
2021/05/31 02:44:21;;;;;;;8.35;5.53;;;13.50;75.80;;;;;;2064291;28;20046;-87
2021/05/31 02:45:23;;;;;;;8.68;5.65;;;13.40;75.70;;;;;;2063714;28;20038;-86
2021/05/31 02:46:24;;;;;;;7.57;5.18;;;13.40;75.80;;;;;;2070244;28;20037;-86
2021/05/31 02:47:25;;;;;;;8.13;5.60;;;13.40;75.80;;;;;;2059438;28;20481;-87
2021/05/31 02:48:26;;;;;;;8.98;5.50;;;13.40;75.90;;;;;;2054231;28;20560;-87
2021/05/31 02:49:26;;;;;;;8.85;5.75;;;13.40;75.90;;;;;;2063266;28;20027;-86
2021/05/31 02:50:29;;;;;;;8.10;5.60;;;13.40;75.90;;;;;;2055207;28;20043;-87
2021/05/31 02:51:29;;;;;;;7.57;5.50;;;13.40;76.50;;;;;;2055615;28;20038;-86
2021/05/31 02:52:30;;;;;;;11.00;5.68;;;13.40;76.00;;;;;;2069387;28;20448;-87
2021/05/31 02:53:31;;;;;;;9.13;6.00;;;13.40;76.00;;;;;;2076863;28;20065;-86
2021/05/31 02:54:32;;;;;;;7.80;5.50;;;13.40;76.00;;;;;;2064773;28;20053;-87
2021/05/31 02:55:33;;;;;;;9.15;6.15;;;13.40;76.00;;;;;;2072460;28;20038;-87
2021/05/31 02:56:34;;;;;;;9.82;5.97;;;13.40;76.00;;;;;;2071227;28;20063;-87
2021/05/31 02:57:34;;;;;;;8.05;5.50;;;13.30;75.90;;;;;;2063737;28;20022;-87
2021/05/31 02:58:35;;;;;;;10.05;5.72;;;13.30;75.90;;;;;;2065459;28;20031;-87
2021/05/31 02:59:36;;;;;;;9.02;5.72;;;13.30;75.90;;;;;;2068966;28;20117;-87
2021/05/31 03:00:36;;;;;;;10.52;6.10;;;13.30;75.90;;;;;;2070741;28;20057;-87
2021/05/31 03:01:37;;;;;;;8.30;5.88;;;13.30;75.90;;;;;;2057786;28;20113;-87
2021/05/31 03:02:38;;;;;;;7.78;5.60;;;13.30;76.00;;;;;;2055762;28;20063;-87
2021/05/31 03:03:38;;;;;;;8.57;5.40;;;13.30;76.00;;;;;;2074093;28;20034;-87
2021/05/31 03:04:39;;;;;;;7.53;5.40;;;13.20;75.90;;;;;;2071167;28;20069;-87
2021/05/31 03:05:40;;;;;;;8.85;5.55;;;13.20;75.90;;;;;;2065053;28;20031;-87
2021/05/31 03:06:40;;;;;;;7.68;5.68;;;13.20;75.90;;;;;;2071795;28;20476;-87
2021/05/31 03:07:41;;;;;;;6.90;5.25;;;13.20;75.90;;;;;;2057236;28;20509;-87
2021/05/31 03:08:42;;;;;;;8.18;5.68;;;13.20;75.90;;;;;;2065071;28;20194;-87
2021/05/31 03:09:43;;;;;;;9.60;5.50;;;13.20;75.90;;;;;;2071302;28;20030;-86
2021/05/31 03:10:43;;;;;;;7.65;5.57;;;13.20;75.80;;;;;;2062501;28;20029;-88
2021/05/31 03:11:44;;;;;;;9.98;5.88;;;13.20;76.50;;;;;;2064201;28;20031;-87
2021/05/31 03:12:46;;;;;;;8.65;5.65;;;13.20;75.80;;;;;;2071703;28;20026;-87
2021/05/31 03:13:47;;;;;;;8.52;5.22;;;13.20;75.90;;;;;;2058064;28;20041;-88
2021/05/31 03:14:49;;;;;;;7.45;5.10;;;13.10;75.80;;;;;;2063190;28;20093;-88
2021/05/31 03:15:51;;;;;;;7.85;5.40;;;13.10;75.80;;;;;;2049399;28;20042;-88
2021/05/31 03:16:52;;;;;;;7.65;5.47;;;13.20;75.90;;;;;;2064749;28;20420;-88
2021/05/31 03:17:53;;;;;;;6.97;5.03;;;13.20;75.90;;;;;;2053532;28;20038;-88
2021/05/31 03:18:53;;;;;;;9.07;5.55;;;13.10;75.80;;;;;;2061506;28;20042;-87
2021/05/31 03:19:54;;;;;;;8.15;5.38;;;13.10;75.80;;;;;;2065322;28;20026;-88
2021/05/31 03:20:55;;;;;;;7.57;5.57;;;13.10;75.80;;;;;;2044605;28;20172;-88
2021/05/31 03:21:57;;;;;;;8.02;5.03;;;13.10;75.80;;;;;;2057215;28;20043;-88
2021/05/31 03:23:00;;;;;;;8.70;5.30;;;13.10;75.80;;;;;;2069914;28;20018;-88
2021/05/31 03:24:01;;;;;;;9.32;5.70;;;13.10;75.80;;;;;;2072121;28;20030;-88
2021/05/31 03:25:03;;;;;;;8.60;5.68;;;13.10;75.80;;;;;;2069170;28;20180;-87
2021/05/31 03:26:04;;;;;;;8.60;5.60;;;13.10;75.80;;;;;;2079325;28;20061;-87
2021/05/31 03:27:05;;;;;;;8.82;5.40;;;13.10;75.80;;;;;;2073593;28;20072;-88
2021/05/31 03:28:06;;;;;;;8.55;5.90;;;13.00;75.80;;;;;;2070036;28;20109;-87
2021/05/31 03:29:07;;;;;;;7.78;5.55;;;13.00;75.80;;;;;;2069020;28;20030;-87
2021/05/31 03:30:09;;;;;;;8.25;5.75;;;13.00;75.80;;;;;;2065436;28;20041;-87
2021/05/31 03:31:10;;;;;;;9.27;5.72;;;13.00;75.90;;;;;;2058933;28;20062;-88
2021/05/31 03:32:11;;;;;;;7.90;5.38;;;13.00;75.90;;;;;;2062191;28;20031;-88
2021/05/31 03:33:11;;;;;;;7.57;5.60;;;13.00;76.00;;;;;;2065366;28;20034;-88
2021/05/31 03:34:12;;;;;;;8.35;5.65;;;13.00;76.00;;;;;;2075262;28;20092;-88
2021/05/31 03:35:14;;;;;;;10.23;5.88;;;12.90;76.00;;;;;;2069207;28;20038;-88
2021/05/31 03:36:14;;;;;;;7.63;5.70;;;12.90;76.00;;;;;;2057961;28;20470;-88
2021/05/31 03:37:15;;;;;;;11.00;5.63;;;13.00;76.10;;;;;;2065529;28;20050;-88
2021/05/31 03:38:16;;;;;;;8.25;5.85;;;12.90;76.10;;;;;;2066109;28;20023;-87
2021/05/31 03:39:16;;;;;;;9.93;6.22;;;12.90;76.10;;;;;;2064701;28;20480;-88
2021/05/31 03:40:21;;;;;;;8.23;6.07;;;12.90;76.10;;;;;;2057457;28;20027;-89
2021/05/31 03:41:22;;;;;;;9.63;6.40;;;12.90;76.10;;;;;;2069072;28;20106;-88
2021/05/31 03:42:22;;;;;;;9.10;6.38;;;12.90;76.20;;;;;;2066260;28;20029;-89
2021/05/31 03:43:23;;;;;;;9.63;6.30;;;12.90;76.20;;;;;;2065726;28;20047;-88
2021/05/31 03:44:24;;;;;;;9.00;5.90;;;12.90;76.30;;;;;;2070596;28;20046;-89
2021/05/31 03:45:24;;;;;;;8.30;5.95;;;12.80;76.20;;;;;;2073645;28;20054;-89
2021/05/31 03:46:25;;;;;;;9.10;6.45;;;12.90;76.40;;;;;;2065354;28;20401;-89
2021/05/31 03:47:26;;;;;;;8.98;5.95;;;12.90;77.00;;;;;;2071377;28;20041;-89
2021/05/31 03:48:27;;;;;;;7.68;5.93;;;12.80;76.40;;;;;;2079084;28;20025;-89
2021/05/31 03:49:27;;;;;;;8.57;6.10;;;12.80;76.40;;;;;;2065227;28;20043;-89
2021/05/31 03:50:30;;;;;;;9.00;6.00;;;12.80;76.40;;;;;;2064891;28;20520;-89
2021/05/31 03:51:31;;;;;;;8.82;6.22;;;12.80;76.50;;;;;;2076652;28;20030;-89
2021/05/31 03:52:32;;;;;;;9.07;6.35;;;12.80;76.50;;;;;;2072829;28;20032;-89
2021/05/31 03:53:32;;;;;;;8.13;6.50;;;12.80;76.50;;;;;;2073943;28;20476;-89
2021/05/31 03:54:33;;;;;;;7.88;5.78;;;12.80;76.60;;;;;;2073392;28;20049;-89
2021/05/31 03:55:34;;;;;;;8.80;6.68;;;12.80;77.20;;;;;;2072924;28;20519;-88
2021/05/31 03:56:36;;;;;;;9.73;6.40;;;12.80;76.60;;;;;;2065260;28;20112;-89
2021/05/31 03:57:37;;;;;;;8.55;5.75;;;12.80;76.60;;;;;;2064314;28;20085;-89
2021/05/31 03:58:40;;;;;;;10.13;6.57;;;12.80;76.60;;;;;;2065594;28;20074;-89
2021/05/31 03:59:41;;;;;;;9.38;6.40;;;12.80;76.60;;;;;;2065803;28;20069;-89
2021/05/31 04:00:41;;;;;;;10.32;6.57;;;12.80;76.70;;;;;;2048981;28;20034;-89
2021/05/31 04:01:42;;;;;;;8.77;6.40;;;12.80;76.70;;;;;;2057431;28;20433;-89
2021/05/31 04:02:44;;;;;;;9.60;6.57;;;12.80;77.30;;;;;;2062247;28;20027;-89
2021/05/31 04:03:45;;;;;;;10.35;7.07;;;12.80;76.80;;;;;;2065176;28;20531;-87
2021/05/31 04:04:49;;;;;;;11.30;7.38;;;12.80;76.80;;;;;;2074013;28;20069;-88
2021/05/31 04:12:30;;;;;;;8.52;6.05;;;12.80;76.50;;;;;;2078013;28;20121;-87
2021/05/31 04:13:30;;;;;;;8.93;6.47;;;12.90;76.50;;;;;;2067450;28;20129;-88
2021/05/31 04:14:31;;;;;;;9.05;6.50;;;12.80;76.40;;;;;;2055921;28;20023;-87
2021/05/31 04:15:32;;;;;;;11.68;7.07;;;12.80;76.40;;;;;;2067177;28;20166;-87
2021/05/31 04:16:33;;;;;;;11.63;7.38;;;12.90;76.50;;;;;;2073007;28;20096;-87
2021/05/31 04:17:34;;;;;;;8.60;6.57;;;12.90;76.50;;;;;;2056504;28;20114;-87
2021/05/31 04:18:34;;;;;;;10.57;6.75;;;12.90;76.50;;;;;;2061656;28;20043;-87
2021/05/31 04:19:35;;;;;;;10.95;7.13;;;12.90;76.50;;;;;;2077202;28;20113;-88
2021/05/31 04:20:36;;;;;;;9.48;6.43;;;12.90;76.50;;;;;;2072620;28;20076;-88
2021/05/31 04:21:38;;;;;;;11.07;7.32;;;12.90;76.40;;;;;;2064593;28;20136;-87
2021/05/31 04:22:39;;;;;;;11.00;6.97;;;13.00;76.50;;;;;;2064785;28;20030;-88
2021/05/31 04:23:39;;;;;;;9.48;6.43;;;13.00;76.40;;;;;;2065164;28;20085;-86
2021/05/31 04:24:40;;;;;;;9.70;6.85;;;13.00;76.40;;;;;;2070383;28;20030;-86
2021/05/31 04:25:41;;;;;;;9.48;6.50;;;13.10;76.30;;;;;;2073355;28;20058;-87
2021/05/31 04:26:43;;;;;;;8.63;6.55;;;13.10;76.30;;;;;;2054646;28;20074;-87
2021/05/31 04:27:44;;;;;;;9.75;6.97;;;13.10;76.30;;;;;;2047142;28;20035;-88
2021/05/31 04:28:44;;;;;;;9.85;6.63;;;13.10;76.20;;;;;;2071746;28;20476;-89
2021/05/31 04:29:45;;;;;;;8.65;6.32;;;13.10;76.20;;;;;;2076184;28;20062;-88
2021/05/31 04:30:45;;;;;;;8.68;6.25;;;13.10;76.20;;;;;;2068959;28;20025;-89
2021/05/31 04:31:46;;;;;;;9.10;6.35;;;13.10;76.20;;;;;;2065795;28;20030;-88
2021/05/31 04:32:47;;;;;;;8.70;6.07;;;13.20;76.20;;;;;;2064642;28;20374;-89
2021/05/31 04:33:48;;;;;;;9.05;6.47;;;13.20;76.10;;;;;;2079269;28;20032;-89
2021/05/31 04:34:49;;;;;;;10.30;6.20;;;13.20;76.10;;;;;;2068473;28;20053;-89
2021/05/31 04:35:50;;;;;;;7.90;5.80;;;13.20;76.00;;;;;;2062467;28;20033;-89
2021/05/31 04:36:50;;;;;;;7.65;5.70;;;13.20;76.00;;;;;;2063990;28;20408;-89
2021/05/31 04:37:56;;;;;;;8.45;6.18;;;13.20;76.00;;;;;;2057216;28;20054;-88
2021/05/31 04:38:57;;;;;;;9.15;5.90;;;13.20;75.90;;;;;;2062740;28;20536;-89
2021/05/31 04:39:57;;;;;;;8.45;6.05;;;13.30;75.90;;;;;;2061845;28;20532;-88
2021/05/31 04:40:59;;;;;;;8.23;6.43;;;13.30;75.90;;;;;;2063060;28;20069;-88
2021/05/31 04:41:59;;;;;;;9.50;6.10;;;13.30;75.90;;;;;;2068837;28;20603;-87
2021/05/31 04:43:00;;;;;;;9.38;6.20;;;13.30;75.80;;;;;;2073917;28;20018;-87
2021/05/31 04:44:00;;;;;;;10.10;6.60;;;13.30;75.80;;;;;;2067981;28;20022;-88
2021/05/31 04:45:01;;;;;;;10.05;6.43;;;13.30;75.70;;;;;;2056408;28;20034;-87
2021/05/31 04:46:04;;;;;;;8.20;6.32;;;13.30;75.70;;;;;;2056663;28;20130;-88
2021/05/31 04:47:05;;;;;;;8.77;6.35;;;13.40;75.70;;;;;;2060622;28;20028;-87
2021/05/31 04:48:06;;;;;;;8.57;6.07;;;13.40;75.70;;;;;;2065230;28;20049;-87
2021/05/31 04:49:07;;;;;;;7.68;5.82;;;13.40;75.60;;;;;;2065471;28;20102;-87
2021/05/31 04:50:08;;;;;;;8.88;5.88;;;13.40;75.60;;;;;;2072560;28;20022;-87
2021/05/31 04:51:09;;;;;;;9.25;5.80;;;13.40;75.50;;;;;;2072797;28;20034;-87
2021/05/31 04:52:10;;;;;;;8.50;6.45;;;13.50;75.50;;;;;;2071644;28;20195;-87
2021/05/31 04:53:11;;;;;;;8.43;5.68;;;13.50;75.40;;;;;;2074966;28;20037;-87
2021/05/31 04:54:12;;;;;;;8.70;5.93;;;13.60;75.30;;;;;;2066666;28;20113;-87
2021/05/31 04:55:17;;;;;;;7.97;5.70;;;13.60;75.20;;;;;;2058335;28;20440;-87
2021/05/31 04:56:18;;;;;;;7.68;5.63;;;13.70;75.10;;;;;;2051260;28;20366;-87
2021/05/31 04:57:18;;;;;;;9.27;5.50;;;13.70;74.90;;;;;;2064033;28;20057;-87
2021/05/31 04:58:19;;;;;;;8.90;5.32;;;13.80;74.80;;;;;;2076869;28;20041;-88
2021/05/31 04:59:20;;;;;;;9.48;5.43;;;13.90;74.70;;;;;;2074483;28;20048;-87
2021/05/31 05:00:21;;;;;;;8.23;5.65;;;14.00;74.60;;;;;;2076368;28;20137;-87
2021/05/31 05:01:22;;;;;;;7.68;5.30;;;14.00;74.30;;;;;;2064933;28;20033;-88
2021/05/31 05:02:22;;;;;;;9.45;5.93;;;14.10;74.10;;;;;;2074827;28;20030;-86
2021/05/31 05:03:23;;;;;;;8.00;5.60;;;14.20;74.00;;;;;;2078076;28;20019;-86
2021/05/31 05:04:24;;;;;;;8.32;5.32;;;14.30;73.80;;;;;;2078065;28;20026;-86
2021/05/31 05:05:25;;;;;;;8.63;5.72;;;14.40;73.60;;;;;;2082111;28;20030;-86
2021/05/31 05:06:26;;;;;;;8.55;4.90;;;14.40;73.40;;;;;;2080396;28;20026;-87
2021/05/31 05:07:27;;;;;;;8.30;5.60;;;14.50;73.20;;;;;;2067857;28;20022;-87
2021/05/31 05:08:27;;;;;;;7.10;5.40;;;14.60;73.70;;;;;;2060628;28;20042;-88
2021/05/31 05:09:28;;;;;;;8.07;5.45;;;14.70;72.90;;;;;;2071363;28;20107;-88
2021/05/31 05:10:29;;;;;;;7.22;4.68;;;14.80;72.70;;;;;;2065540;28;20030;-88
2021/05/31 05:11:29;;;;;;;8.10;4.88;;;14.90;72.50;;;;;;2066316;28;20077;-88
2021/05/31 05:12:30;;;;;;;7.32;5.07;;;15.10;72.30;;;;;;2071763;28;20022;-88
2021/05/31 05:13:31;;;;;;;7.05;4.80;;;15.10;72.10;;;;;;2066641;28;20041;-88
2021/05/31 05:14:31;;;;;;;7.38;4.70;;;15.20;71.90;;;;;;2073245;28;20041;-88
2021/05/31 05:15:33;;;;;;;6.97;4.80;;;15.30;71.70;;;;;;2085768;28;20022;-86
2021/05/31 05:16:33;;;;;;;7.55;5.22;;;15.40;71.40;;;;;;2074892;28;20052;-88
2021/05/31 05:17:34;;;;;;;6.35;4.95;;;15.50;71.20;;;;;;2050709;28;20042;-87
2021/05/31 05:18:45;;;;;;;7.28;5.07;;;15.50;70.90;;;;;;2055466;28;20432;-88
2021/05/31 05:19:46;;;;;;;7.47;5.00;;;15.60;70.70;;;;;;2066514;28;20034;-88
2021/05/31 05:20:47;;;;;;;7.75;4.90;;;15.60;70.60;;;;;;2073522;28;20026;-90
2021/05/31 05:21:47;;;;;;;7.95;4.75;;;15.70;70.50;;;;;;2072339;28;20046;-88
2021/05/31 05:22:48;;;;;;;9.02;6.00;;;15.70;70.30;;;;;;2065812;28;20622;-88
2021/05/31 05:23:49;;;;;;;7.53;5.20;;;15.80;70.20;;;;;;2066156;28;20038;-87
2021/05/31 05:24:50;;;;;;;6.15;4.72;;;15.80;70.10;;;;;;2071605;28;20113;-88
2021/05/31 05:25:51;;;;;;;7.35;4.53;;;15.90;70.10;;;;;;2072661;28;20030;-88
2021/05/31 05:26:51;;;;;;;7.13;5.18;;;15.90;69.80;;;;;;2089147;28;20082;-89
2021/05/31 05:27:53;;;;;;;7.78;4.82;;;16.00;69.80;;;;;;2069599;28;20065;-86
2021/05/31 05:28:53;;;;;;;9.02;5.03;;;16.00;69.60;;;;;;2072789;28;21503;-86
2021/05/31 05:29:54;;;;;;;6.53;4.95;;;16.10;69.60;;;;;;2064513;28;20062;-86
2021/05/31 05:30:55;;;;;;;7.25;4.80;;;16.10;69.50;;;;;;2051136;28;20169;-85